Time;durP1;ratioP1;P1;durP2;ratioP2;P2;SDS_P1;SDS_P2;PMS_P1;PMS_P2;Temp;Humidity;BMP_temperature;BMP_pressure;BME280_temperature;BME280_humidity;BME280_pressure;Samples;Min_cycle;Max_cycle;Signal;HPM_P1;HPM_P2
2024/03/19 00:00:41;;;;;;;1.20;0.90;;;;;;;9.41;56.77;101249.13;5073055;28;20025;-66
2024/03/19 00:03:07;;;;;;;1.58;1.00;;;;;;;9.37;57.73;101245.56;5053238;28;20116;-65
2024/03/19 00:05:32;;;;;;;2.17;1.50;;;;;;;9.33;56.58;101247.34;5054418;28;20458;-65
2024/03/19 00:07:58;;;;;;;1.98;1.10;;;;;;;9.20;57.14;101256.44;5055849;28;20029;-65
2024/03/19 00:10:24;;;;;;;1.02;0.90;;;;;;;9.19;57.83;101260.28;5057887;28;20056;-66
2024/03/19 00:12:49;;;;;;;2.47;1.20;;;;;;;9.23;56.68;101259.28;5064982;28;20060;-65
2024/03/19 00:15:15;;;;;;;1.40;1.23;;;;;;;9.07;57.69;101253.75;5054876;28;20059;-65
2024/03/19 00:17:40;;;;;;;2.03;1.52;;;;;;;9.01;57.69;101247.00;5073952;28;20034;-66
2024/03/19 00:20:08;;;;;;;1.60;1.30;;;;;;;8.96;57.27;101255.22;5051125;28;20413;-66
2024/03/19 00:22:34;;;;;;;2.00;1.30;;;;;;;9.15;57.52;101256.66;5051148;28;20033;-66
2024/03/19 00:25:00;;;;;;;4.63;1.55;;;;;;;8.94;56.80;101249.41;5052077;28;20043;-66
2024/03/19 00:27:25;;;;;;;2.38;1.30;;;;;;;8.93;57.61;101250.53;5055021;28;20028;-65
2024/03/19 00:29:52;;;;;;;2.78;1.05;;;;;;;8.87;57.52;101251.03;5073726;28;20017;-65
2024/03/19 00:32:17;;;;;;;1.90;1.10;;;;;;;8.92;58.10;101240.88;5052137;28;20035;-66
2024/03/19 00:34:43;;;;;;;1.20;1.00;;;;;;;9.05;57.74;101242.53;5052636;28;20127;-66
2024/03/19 00:37:08;;;;;;;1.90;1.45;;;;;;;8.67;59.37;101236.50;5049275;28;20037;-67
2024/03/19 00:39:34;;;;;;;3.03;1.33;;;;;;;8.65;58.96;101238.72;5055151;28;20437;-66
2024/03/19 00:42:01;;;;;;;2.63;1.70;;;;;;;8.74;59.23;101241.38;5051220;28;20032;-64
2024/03/19 00:44:27;;;;;;;2.30;1.63;;;;;;;8.71;59.82;101242.78;5064775;28;20036;-65
2024/03/19 00:46:54;;;;;;;2.40;1.30;;;;;;;8.75;59.79;101249.09;5051604;28;20116;-65
2024/03/19 00:49:20;;;;;;;2.17;1.65;;;;;;;8.91;58.79;101242.03;5052698;28;20075;-64
2024/03/19 00:51:46;;;;;;;2.97;1.60;;;;;;;8.65;59.38;101241.41;5052026;28;20024;-64
2024/03/19 00:54:12;;;;;;;1.95;1.42;;;;;;;8.84;59.26;101249.81;5050598;28;20089;-65
2024/03/19 00:56:38;;;;;;;3.05;1.40;;;;;;;8.57;59.79;101258.41;5068596;28;20036;-65
2024/03/19 00:59:03;;;;;;;3.67;1.20;;;;;;;8.65;60.39;101251.38;5061011;28;20066;-65
2024/03/19 01:01:30;;;;;;;2.05;1.40;;;;;;;8.59;60.22;101245.44;5066154;28;20025;-65
2024/03/19 01:03:56;;;;;;;1.48;1.23;;;;;;;8.80;59.77;101253.47;5055289;28;20045;-66
2024/03/19 01:06:21;;;;;;;1.52;1.15;;;;;;;8.86;59.76;101244.91;5053686;28;20110;-65
2024/03/19 01:08:47;;;;;;;1.60;0.95;;;;;;;8.83;58.84;101250.91;5058991;28;20110;-64
2024/03/19 01:11:12;;;;;;;2.30;1.40;;;;;;;8.90;58.72;101251.16;5049927;28;20442;-65
2024/03/19 01:13:38;;;;;;;2.13;1.52;;;;;;;8.80;58.93;101245.44;5053643;28;20128;-65
2024/03/19 01:16:04;;;;;;;2.60;1.80;;;;;;;8.82;59.21;101245.88;5051281;28;20032;-64
2024/03/19 01:18:30;;;;;;;2.35;1.58;;;;;;;8.62;59.58;101242.09;5051209;28;20065;-65
2024/03/19 01:20:55;;;;;;;3.55;1.58;;;;;;;8.77;59.48;101246.84;5034972;28;20130;-64
2024/03/19 01:23:21;;;;;;;3.17;1.77;;;;;;;8.68;59.23;101250.72;5052266;28;20025;-64
2024/03/19 01:25:46;;;;;;;2.58;1.80;;;;;;;8.60;59.59;101246.19;5059672;28;20027;-64
2024/03/19 01:28:13;;;;;;;2.35;1.50;;;;;;;8.78;58.69;101243.06;5053552;28;20521;-65
2024/03/19 01:30:39;;;;;;;2.38;1.50;;;;;;;8.54;59.51;101244.81;5055030;28;20029;-67
2024/03/19 01:33:04;;;;;;;3.05;1.67;;;;;;;8.42;59.43;101239.38;5051841;28;20486;-65
2024/03/19 01:35:30;;;;;;;4.70;1.70;;;;;;;8.53;58.91;101238.69;5054382;28;20043;-64
2024/03/19 01:37:56;;;;;;;1.58;1.30;;;;;;;8.37;59.90;101237.66;5053575;28;20016;-65
2024/03/19 01:40:22;;;;;;;4.10;1.83;;;;;;;8.30;60.73;101242.78;5038505;28;20051;-65
2024/03/19 01:42:47;;;;;;;2.97;1.40;;;;;;;8.31;60.29;101238.97;5048714;28;20493;-65
2024/03/19 01:45:14;;;;;;;1.52;1.10;;;;;;;8.18;60.31;101245.31;5051761;28;20047;-65
2024/03/19 01:47:42;;;;;;;4.00;2.03;;;;;;;7.98;61.33;101238.78;5050346;28;20473;-65
2024/03/19 01:50:10;;;;;;;4.72;2.05;;;;;;;8.03;62.64;101243.19;5050668;28;20033;-66
2024/03/19 01:52:41;;;;;;;1.50;1.30;;;;;;;8.34;61.30;101238.34;5069049;28;20021;-65
2024/03/19 01:55:07;;;;;;;2.13;1.70;;;;;;;8.50;60.65;101228.59;5054553;28;20121;-65
2024/03/19 01:57:34;;;;;;;1.83;1.30;;;;;;;8.27;60.77;101229.19;5053848;28;20048;-65
2024/03/19 02:00:00;;;;;;;4.55;1.85;;;;;;;7.99;61.67;101226.19;5035751;28;20062;-65
2024/03/19 02:02:37;;;;;;;2.42;1.48;;;;;;;8.07;61.65;101220.75;5066225;28;20159;-64
2024/03/19 02:05:04;;;;;;;1.85;1.50;;;;;;;8.08;61.73;101216.97;5056303;28;20447;-65
2024/03/19 02:07:31;;;;;;;1.60;1.50;;;;;;;7.97;62.33;101223.81;5059538;28;20478;-65
2024/03/19 02:09:56;;;;;;;1.92;1.20;;;;;;;8.11;62.23;101215.53;5060704;28;20021;-65
2024/03/19 02:12:23;;;;;;;2.92;1.48;;;;;;;8.03;61.94;101217.16;5056029;28;20041;-65
2024/03/19 02:14:49;;;;;;;1.73;1.40;;;;;;;7.98;62.41;101213.88;5053001;28;20056;-65
2024/03/19 02:17:16;;;;;;;2.45;1.50;;;;;;;8.03;62.81;101217.16;5052204;28;20442;-64
2024/03/19 02:19:42;;;;;;;2.00;1.35;;;;;;;8.13;61.85;101221.34;5051081;28;20033;-65
2024/03/19 02:22:09;;;;;;;1.70;1.30;;;;;;;8.13;62.13;101218.66;5050413;28;20048;-66
2024/03/19 02:24:36;;;;;;;4.38;1.75;;;;;;;8.16;61.59;101210.00;5051514;28;20021;-64
2024/03/19 02:27:02;;;;;;;3.63;1.63;;;;;;;8.08;62.16;101211.63;5039588;28;20025;-66
2024/03/19 02:29:28;;;;;;;2.58;1.50;;;;;;;8.01;61.36;101214.00;5056808;28;20398;-65
2024/03/19 02:31:53;;;;;;;1.50;1.17;;;;;;;7.75;63.50;101215.22;5050995;28;20033;-65
2024/03/19 02:34:19;;;;;;;3.20;1.42;;;;;;;7.82;63.18;101215.53;5049785;28;20025;-65
2024/03/19 02:36:44;;;;;;;2.45;2.00;;;;;;;7.74;63.71;101211.75;5049780;28;20036;-65
2024/03/19 02:39:12;;;;;;;3.55;1.55;;;;;;;7.69;64.33;101209.25;5055229;28;20130;-65
2024/03/19 02:41:38;;;;;;;1.85;1.60;;;;;;;7.56;64.66;101199.53;5068737;28;20033;-65
2024/03/19 02:44:04;;;;;;;2.15;1.17;;;;;;;7.68;64.65;101207.72;5067796;28;20040;-64
2024/03/19 02:46:29;;;;;;;3.97;1.80;;;;;;;7.93;63.26;101206.00;5034973;28;20418;-64
2024/03/19 02:48:54;;;;;;;2.58;1.27;;;;;;;7.64;64.01;101200.63;5049045;28;20084;-64
2024/03/19 02:51:20;;;;;;;1.77;1.30;;;;;;;7.51;64.04;101199.69;5050064;28;20409;-64
2024/03/19 02:53:45;;;;;;;2.22;1.60;;;;;;;7.45;64.93;101205.56;5068695;28;20032;-65
2024/03/19 02:56:11;;;;;;;1.20;1.10;;;;;;;7.58;64.55;101207.25;5053765;28;20406;-65
2024/03/19 02:58:36;;;;;;;3.85;1.80;;;;;;;7.59;64.31;101196.22;5063452;28;20567;-65
2024/03/19 03:01:03;;;;;;;3.58;1.67;;;;;;;7.64;64.87;101205.97;5052394;28;20445;-64
2024/03/19 03:03:28;;;;;;;2.13;1.25;;;;;;;7.64;64.95;101204.09;5047808;28;20049;-64
2024/03/19 03:05:54;;;;;;;4.43;1.80;;;;;;;7.79;64.40;101200.06;5047212;28;20522;-64
2024/03/19 03:08:19;;;;;;;2.20;1.40;;;;;;;7.62;64.24;101202.84;5066863;28;20059;-64
2024/03/19 03:10:44;;;;;;;2.63;1.45;;;;;;;7.64;64.20;101200.63;5051560;28;20058;-64
2024/03/19 03:13:10;;;;;;;2.55;1.60;;;;;;;7.46;65.30;101199.09;5050629;28;20556;-64
2024/03/19 03:15:35;;;;;;;1.50;1.17;;;;;;;7.53;65.20;101207.44;5051931;28;20040;-65
2024/03/19 03:18:01;;;;;;;1.83;1.60;;;;;;;7.45;65.11;101198.31;5050173;28;20091;-64
2024/03/19 03:20:26;;;;;;;1.30;1.20;;;;;;;7.52;64.95;101189.78;5048991;28;20111;-64
2024/03/19 03:22:52;;;;;;;1.70;1.13;;;;;;;7.48;65.00;101199.56;5050206;28;20025;-64
2024/03/19 03:25:17;;;;;;;2.05;1.23;;;;;;;7.40;64.67;101200.38;5070723;28;20029;-64
2024/03/19 03:27:43;;;;;;;1.67;1.33;;;;;;;7.46;65.60;101199.09;5070377;28;20025;-65
2024/03/19 03:30:10;;;;;;;2.90;1.50;;;;;;;7.38;66.00;101202.56;5053537;28;20116;-65
2024/03/19 03:32:40;;;;;;;2.25;1.35;;;;;;;7.29;66.45;101200.72;5065125;28;20053;-65
2024/03/19 03:35:07;;;;;;;4.53;2.05;;;;;;;7.37;65.78;101206.38;5048706;28;20029;-64
2024/03/19 03:37:34;;;;;;;1.45;1.25;;;;;;;7.38;65.89;101205.25;5049593;28;20048;-66
2024/03/19 03:40:00;;;;;;;2.00;1.00;;;;;;;7.44;65.55;101209.34;5048456;28;20620;-65
2024/03/19 03:42:26;;;;;;;1.60;1.17;;;;;;;7.42;64.66;101206.19;5030461;28;20086;-65
2024/03/19 03:44:51;;;;;;;2.83;1.80;;;;;;;7.19;66.28;101214.44;5048472;28;20074;-66
2024/03/19 03:47:17;;;;;;;1.40;1.00;;;;;;;7.18;66.57;101204.81;5045058;28;20503;-65
2024/03/19 03:49:43;;;;;;;2.13;1.17;;;;;;;7.27;66.47;101202.94;5051850;28;20474;-65
2024/03/19 03:52:09;;;;;;;2.67;1.23;;;;;;;7.34;65.62;101201.66;5048631;28;20029;-65
2024/03/19 03:54:34;;;;;;;0.85;0.65;;;;;;;7.30;65.55;101204.97;5049376;28;20489;-65
2024/03/19 03:57:00;;;;;;;3.28;1.67;;;;;;;7.27;65.03;101210.19;5046678;28;20079;-65
2024/03/19 03:59:27;;;;;;;5.88;1.40;;;;;;;7.35;64.84;101205.91;5046524;28;20024;-65
2024/03/19 04:01:53;;;;;;;2.92;1.73;;;;;;;7.12;66.11;101202.66;5045379;28;21414;-64
2024/03/19 04:04:19;;;;;;;1.70;1.48;;;;;;;7.10;65.95;101205.63;5049077;28;20524;-65
2024/03/19 04:06:44;;;;;;;1.60;1.30;;;;;;;7.05;66.28;101188.94;5047357;28;20041;-65
2024/03/19 04:09:10;;;;;;;3.17;1.45;;;;;;;7.22;66.38;101196.94;5063700;28;20041;-66
2024/03/19 04:11:36;;;;;;;3.13;1.60;;;;;;;7.16;66.86;101190.19;5051620;28;20051;-65
2024/03/19 04:14:01;;;;;;;4.78;1.98;;;;;;;7.18;66.20;101196.78;5068946;28;20537;-65
2024/03/19 04:16:27;;;;;;;3.63;1.50;;;;;;;7.16;66.22;101188.28;5066746;28;20071;-64
2024/03/19 04:18:52;;;;;;;1.70;1.58;;;;;;;7.14;65.69;101200.44;5051290;28;20044;-65
2024/03/19 04:21:18;;;;;;;1.45;1.30;;;;;;;7.35;64.98;101205.91;5053704;28;20025;-64
2024/03/19 04:23:43;;;;;;;1.55;1.25;;;;;;;7.35;65.02;101200.56;5065915;28;20024;-66
2024/03/19 04:26:09;;;;;;;3.75;1.50;;;;;;;7.28;65.56;101196.47;5049169;28;20028;-66
2024/03/19 04:28:34;;;;;;;0.80;0.80;;;;;;;7.37;64.55;101209.06;5049713;28;20028;-65
2024/03/19 04:31:00;;;;;;;3.08;1.30;;;;;;;7.18;65.31;101204.81;5050287;28;20394;-65
2024/03/19 04:33:25;;;;;;;3.15;1.52;;;;;;;7.08;66.00;101202.47;5065637;28;20029;-65
2024/03/19 04:35:51;;;;;;;1.20;1.10;;;;;;;7.12;65.86;101206.09;5065850;28;20025;-65
2024/03/19 04:38:16;;;;;;;7.82;1.40;;;;;;;7.10;65.80;101208.31;5066466;28;20041;-65
2024/03/19 04:40:42;;;;;;;4.00;1.30;;;;;;;6.93;66.16;101210.25;5046692;28;20050;-65
2024/03/19 04:43:07;;;;;;;7.07;1.50;;;;;;;6.90;66.21;101198.25;5048602;28;20025;-65
2024/03/19 04:45:33;;;;;;;2.10;1.30;;;;;;;6.91;67.07;101202.50;5051705;28;20036;-65
2024/03/19 04:47:58;;;;;;;1.58;1.48;;;;;;;6.91;67.39;101199.81;5050680;28;20116;-65
2024/03/19 04:50:24;;;;;;;3.50;1.58;;;;;;;7.03;66.59;101194.63;5051661;28;20029;-65
2024/03/19 04:52:50;;;;;;;2.90;1.75;;;;;;;6.81;67.10;101197.50;5067564;28;20070;-65
2024/03/19 04:55:16;;;;;;;1.73;1.30;;;;;;;6.85;67.09;101201.09;5049773;28;20041;-65
2024/03/19 04:57:41;;;;;;;2.35;1.50;;;;;;;7.02;65.94;101209.13;5049894;28;20032;-65
2024/03/19 05:00:13;;;;;;;2.72;1.40;;;;;;;6.85;66.25;101211.03;5050327;28;20037;-65
2024/03/19 05:02:38;;;;;;;1.73;1.23;;;;;;;6.91;65.90;101205.19;5049138;28;20024;-65
2024/03/19 05:05:04;;;;;;;3.08;1.40;;;;;;;7.06;65.92;101198.56;5051932;28;20029;-65
2024/03/19 05:07:30;;;;;;;2.17;1.40;;;;;;;6.96;66.26;101197.00;5047383;28;20036;-66
2024/03/19 05:09:55;;;;;;;3.38;1.35;;;;;;;7.09;65.71;101200.59;5048137;28;20045;-65
2024/03/19 05:12:21;;;;;;;2.50;1.00;;;;;;;7.02;66.55;101198.41;5056383;28;20502;-66
2024/03/19 05:14:47;;;;;;;2.53;1.50;;;;;;;6.79;66.90;101189.00;5050786;28;20102;-65
2024/03/19 05:17:13;;;;;;;1.10;1.05;;;;;;;6.61;67.86;101203.47;5053278;28;20504;-66
2024/03/19 05:19:39;;;;;;;3.25;1.50;;;;;;;6.56;68.00;101205.50;5052778;28;20497;-65
2024/03/19 05:22:04;;;;;;;1.55;1.00;;;;;;;6.65;68.08;101203.63;5049973;28;20079;-65
2024/03/19 05:24:30;;;;;;;2.28;1.48;;;;;;;6.58;67.60;101209.41;5066531;28;20029;-65
2024/03/19 05:26:56;;;;;;;2.58;1.30;;;;;;;6.72;68.00;101220.78;5049334;28;20029;-64
2024/03/19 05:29:22;;;;;;;2.42;1.52;;;;;;;6.77;67.24;101212.59;5035291;28;20052;-65
2024/03/19 05:31:48;;;;;;;1.95;1.38;;;;;;;6.70;67.86;101208.78;5051405;28;20048;-65
2024/03/19 05:34:14;;;;;;;3.40;1.20;;;;;;;6.76;66.61;101204.88;5068416;28;20067;-64
2024/03/19 05:36:39;;;;;;;1.27;1.00;;;;;;;6.45;67.17;101215.72;5064404;28;20486;-66
2024/03/19 05:39:08;;;;;;;3.13;1.23;;;;;;;6.64;67.88;101216.19;5045622;28;20398;-65
2024/03/19 05:41:37;;;;;;;2.15;1.58;;;;;;;6.70;68.54;101211.47;5065150;28;20040;-65
2024/03/19 05:44:03;;;;;;;1.77;1.50;;;;;;;6.82;67.38;101215.13;5052521;28;20032;-66
2024/03/19 05:46:30;;;;;;;1.55;1.20;;;;;;;6.92;67.30;101212.13;5032719;28;20037;-66
2024/03/19 05:48:56;;;;;;;1.20;1.08;;;;;;;6.79;66.79;101215.75;5049450;28;20630;-67
2024/03/19 05:51:22;;;;;;;5.55;1.20;;;;;;;6.90;66.27;101217.00;5035555;28;20111;-66
2024/03/19 05:53:47;;;;;;;5.32;1.40;;;;;;;6.92;66.31;101214.78;5033231;28;20078;-66
2024/03/19 05:56:13;;;;;;;1.77;1.30;;;;;;;6.92;65.93;101214.78;5030197;28;20072;-66
2024/03/19 05:58:39;;;;;;;1.70;1.20;;;;;;;6.84;67.00;101218.25;5048054;28;20025;-65
2024/03/19 06:01:05;;;;;;;1.70;1.33;;;;;;;7.00;66.02;101216.69;5044531;28;20395;-65
2024/03/19 06:03:34;;;;;;;1.30;1.05;;;;;;;6.97;66.88;101222.66;5050075;28;20434;-64
2024/03/19 06:06:08;;;;;;;2.60;1.30;;;;;;;6.93;66.09;101227.06;5050797;28;20100;-65
2024/03/19 06:08:37;;;;;;;4.25;1.15;;;;;;;6.90;66.52;101227.72;5070840;28;20037;-64
2024/03/19 06:11:04;;;;;;;1.40;1.00;;;;;;;6.91;66.83;101231.19;5065227;28;20111;-65
2024/03/19 06:13:29;;;;;;;1.35;1.15;;;;;;;7.02;66.48;101225.19;5049706;28;20033;-65
2024/03/19 06:15:55;;;;;;;2.08;1.00;;;;;;;7.06;65.80;101231.50;5050594;28;20090;-66
2024/03/19 06:18:21;;;;;;;1.67;1.23;;;;;;;6.99;66.34;101225.81;5048860;28;20048;-65
2024/03/19 06:20:46;;;;;;;3.65;1.33;;;;;;;7.22;66.09;101229.88;5049427;28;20033;-64
2024/03/19 06:23:12;;;;;;;1.90;1.17;;;;;;;7.26;65.21;101236.16;5045271;28;20040;-65
2024/03/19 06:25:41;;;;;;;4.30;1.52;;;;;;;7.30;64.30;101226.41;5049168;28;20025;-65
2024/03/19 06:28:06;;;;;;;0.82;0.75;;;;;;;7.40;63.47;101236.00;5050144;28;20037;-65
2024/03/19 06:30:33;;;;;;;1.77;1.40;;;;;;;7.51;63.74;101236.44;5048887;28;20082;-65
2024/03/19 06:32:59;;;;;;;1.92;1.40;;;;;;;7.55;63.77;101240.81;5048870;28;20022;-65
2024/03/19 06:35:25;;;;;;;3.70;1.45;;;;;;;7.63;62.81;101236.53;5047663;28;20529;-66
2024/03/19 06:37:51;;;;;;;2.08;1.42;;;;;;;7.64;62.30;101230.88;5060491;28;20029;-65
2024/03/19 06:40:17;;;;;;;2.15;1.52;;;;;;;7.67;62.72;101246.31;5050806;28;20224;-65
2024/03/19 06:42:43;;;;;;;2.75;1.50;;;;;;;7.65;62.00;101250.41;5050518;28;20104;-66
2024/03/19 06:45:09;;;;;;;1.90;1.25;;;;;;;7.74;61.27;101259.25;5051023;28;20060;-66
2024/03/19 06:47:35;;;;;;;1.25;1.10;;;;;;;7.63;61.71;101241.91;5046741;28;20029;-66
2024/03/19 06:50:06;;;;;;;2.72;1.27;;;;;;;7.45;62.98;101248.44;5050868;28;20120;-65
2024/03/19 06:52:35;;;;;;;4.03;1.42;;;;;;;7.58;62.40;101236.72;5060879;28;20029;-65
2024/03/19 06:55:02;;;;;;;3.42;1.63;;;;;;;7.52;62.29;101254.88;5049650;28;20036;-65
2024/03/19 06:57:31;;;;;;;1.20;1.10;;;;;;;7.49;63.48;101250.13;5049909;28;20035;-65
2024/03/19 06:59:57;;;;;;;2.00;1.50;;;;;;;7.48;63.21;101251.25;5047060;28;20112;-64
2024/03/19 07:02:29;;;;;;;2.38;1.33;;;;;;;7.55;63.39;101253.47;5058759;28;20079;-65
2024/03/19 07:04:55;;;;;;;1.33;1.23;;;;;;;7.67;63.15;101259.72;5048807;28;20028;-65
2024/03/19 07:07:22;;;;;;;2.88;1.48;;;;;;;7.54;63.21;101266.06;5063580;28;20730;-65
2024/03/19 07:09:53;;;;;;;3.90;1.40;;;;;;;7.81;62.41;101262.19;5049186;28;20090;-66
2024/03/19 07:12:19;;;;;;;2.17;1.47;;;;;;;7.88;61.32;101265.16;5065115;28;20044;-65
2024/03/19 07:14:46;;;;;;;3.90;1.40;;;;;;;7.89;61.27;101270.22;5047136;28;20040;-65
2024/03/19 07:17:12;;;;;;;1.77;0.65;;;;;;;7.89;60.50;101269.44;5049845;28;20051;-66
2024/03/19 07:19:38;;;;;;;2.33;1.02;;;;;;;7.48;60.93;101279.94;5035283;28;20024;-66
2024/03/19 07:22:04;;;;;;;2.38;1.38;;;;;;;7.63;61.15;101276.75;5046155;28;20043;-66
2024/03/19 07:24:29;;;;;;;2.00;1.50;;;;;;;7.74;62.07;101278.00;5047220;28;20037;-66
2024/03/19 07:26:55;;;;;;;2.90;1.90;;;;;;;7.99;60.17;101285.19;5066638;28;20086;-66
2024/03/19 07:29:20;;;;;;;1.70;1.40;;;;;;;7.95;59.49;101278.88;5048289;28;20044;-65
2024/03/19 07:31:47;;;;;;;2.45;1.38;;;;;;;8.04;58.99;101295.72;5050337;28;20043;-66
2024/03/19 07:34:13;;;;;;;2.00;1.25;;;;;;;8.00;59.12;101290.22;5048898;28;20029;-65
2024/03/19 07:36:39;;;;;;;3.72;1.55;;;;;;;7.92;59.25;101284.88;5065218;28;20053;-66
2024/03/19 07:39:11;;;;;;;2.17;1.55;;;;;;;7.88;59.91;101290.09;5049115;28;20064;-65
2024/03/19 07:41:38;;;;;;;3.10;1.65;;;;;;;7.85;60.40;101290.75;5051471;28;20033;-65
2024/03/19 07:44:04;;;;;;;1.80;1.45;;;;;;;7.81;60.31;101294.38;5054978;28;20050;-65
2024/03/19 07:46:30;;;;;;;1.85;1.45;;;;;;;7.80;59.92;101303.53;5069298;28;20064;-66
2024/03/19 07:48:55;;;;;;;2.33;1.23;;;;;;;8.03;59.65;101297.59;5052810;28;20071;-66
2024/03/19 07:51:21;;;;;;;2.65;1.65;;;;;;;8.06;59.18;101296.19;5048735;28;20045;-66
2024/03/19 07:53:46;;;;;;;4.13;1.70;;;;;;;8.00;59.22;101300.94;5056134;28;20102;-66
2024/03/19 07:56:12;;;;;;;6.32;1.58;;;;;;;8.08;59.09;101302.00;5057220;28;20157;-66
2024/03/19 07:58:37;;;;;;;2.78;1.63;;;;;;;8.08;59.18;101296.66;5067606;28;20036;-66
2024/03/19 08:01:06;;;;;;;3.03;1.58;;;;;;;8.16;59.00;101304.66;5056166;28;20035;-67
2024/03/19 08:03:33;;;;;;;2.30;1.60;;;;;;;8.25;59.18;101320.75;5067151;28;20036;-67
2024/03/19 08:05:59;;;;;;;1.73;1.15;;;;;;;8.23;58.58;101317.56;5052548;28;20036;-67
2024/03/19 08:08:24;;;;;;;0.30;0.30;;;;;;;7.89;58.84;101325.75;5051757;28;20498;-65
2024/03/19 08:10:50;;;;;;;4.30;1.58;;;;;;;7.98;59.72;101305.84;5071474;28;20091;-64
2024/03/19 08:13:15;;;;;;;0.95;0.82;;;;;;;8.01;59.44;101321.28;5065769;28;20041;-64
2024/03/19 08:15:41;;;;;;;1.98;1.35;;;;;;;7.87;60.01;101315.34;5057002;28;20086;-64
2024/03/19 08:18:08;;;;;;;3.35;1.38;;;;;;;7.97;59.50;101315.00;5053628;28;20509;-64
2024/03/19 08:20:37;;;;;;;1.83;1.30;;;;;;;8.07;60.56;101320.00;5070491;28;20208;-64
2024/03/19 08:23:04;;;;;;;2.25;1.63;;;;;;;8.25;59.79;101319.94;5069036;28;20261;-64
2024/03/19 08:25:30;;;;;;;2.83;1.50;;;;;;;8.46;59.24;101310.09;5066931;28;20044;-63
2024/03/19 08:27:56;;;;;;;1.65;1.30;;;;;;;8.38;59.53;101314.38;5046739;28;20040;-64
2024/03/19 08:30:22;;;;;;;2.95;1.48;;;;;;;8.62;58.70;101321.81;5066828;28;20120;-65
2024/03/19 08:32:47;;;;;;;3.05;1.83;;;;;;;8.76;58.04;101317.81;5048568;28;20116;-65
2024/03/19 08:35:14;;;;;;;2.85;1.30;;;;;;;8.77;58.17;101313.19;5051876;28;20055;-65
2024/03/19 08:37:41;;;;;;;2.25;1.65;;;;;;;8.89;58.84;101308.69;5050063;28;20033;-65
2024/03/19 08:40:07;;;;;;;2.33;1.42;;;;;;;9.26;58.65;101311.56;5050696;28;20079;-65
2024/03/19 08:42:34;;;;;;;3.25;1.55;;;;;;;9.51;57.53;101307.88;5050278;28;20017;-66
2024/03/19 08:45:00;;;;;;;1.63;1.38;;;;;;;9.79;56.89;101306.94;5050692;28;20028;-66
2024/03/19 08:47:26;;;;;;;1.75;1.08;;;;;;;9.99;55.87;101313.38;5065852;28;20033;-67
2024/03/19 08:49:52;;;;;;;2.10;1.48;;;;;;;10.12;54.38;101306.94;5053692;28;20043;-65
2024/03/19 08:52:17;;;;;;;1.75;1.13;;;;;;;10.04;54.57;101307.78;5050236;28;20037;-65
2024/03/19 08:54:43;;;;;;;2.00;1.08;;;;;;;9.89;54.30;101313.81;5069448;28;20737;-66
2024/03/19 08:57:11;;;;;;;1.38;1.23;;;;;;;9.66;55.42;101309.91;5048915;28;20030;-65
2024/03/19 08:59:37;;;;;;;2.47;1.40;;;;;;;9.60;55.67;101320.09;5049887;28;20039;-65
2024/03/19 09:02:04;;;;;;;1.48;1.05;;;;;;;9.47;55.98;101315.00;5051284;28;20032;-65
2024/03/19 09:04:33;;;;;;;2.90;1.70;;;;;;;9.42;56.68;101316.03;5052019;28;20185;-65
2024/03/19 09:06:58;;;;;;;4.88;1.90;;;;;;;9.66;56.00;101320.69;5053560;28;20482;-65
2024/03/19 09:09:23;;;;;;;3.08;1.48;;;;;;;9.70;55.83;101321.59;5066600;28;20033;-64
2024/03/19 09:11:51;;;;;;;3.15;1.30;;;;;;;9.69;56.89;101309.28;5066730;28;20035;-64
2024/03/19 09:14:17;;;;;;;4.97;1.70;;;;;;;9.74;56.48;101306.34;5053371;28;20032;-64
2024/03/19 09:16:43;;;;;;;2.55;1.40;;;;;;;9.86;55.75;101319.84;5053061;28;20047;-65
2024/03/19 09:19:08;;;;;;;2.00;1.42;;;;;;;10.08;55.82;101310.59;5051044;28;20414;-65
2024/03/19 09:21:34;;;;;;;3.13;1.67;;;;;;;10.18;54.74;101321.72;5049605;28;20029;-65
2024/03/19 09:24:00;;;;;;;1.45;1.33;;;;;;;10.07;54.95;101322.44;5064951;28;20025;-64
2024/03/19 09:26:26;;;;;;;1.88;1.30;;;;;;;10.10;54.75;101319.94;5047616;28;20043;-65
2024/03/19 09:28:52;;;;;;;1.70;1.08;;;;;;;10.11;55.42;101312.63;5064412;28;20032;-65
2024/03/19 09:31:17;;;;;;;5.15;1.73;;;;;;;9.83;55.32;101310.53;5050003;28;20107;-65
2024/03/19 09:33:43;;;;;;;3.75;1.70;;;;;;;9.94;55.59;101317.06;5066271;28;20043;-65
2024/03/19 09:36:08;;;;;;;3.45;1.92;;;;;;;10.15;55.00;101297.38;5049176;28;20098;-65
2024/03/19 09:38:34;;;;;;;2.92;1.52;;;;;;;10.33;54.75;101302.22;5046025;28;20143;-66
2024/03/19 09:41:03;;;;;;;3.05;1.70;;;;;;;10.41;54.96;101308.63;5049755;28;20033;-65
2024/03/19 09:43:33;;;;;;;3.50;1.65;;;;;;;10.39;54.96;101311.66;5062044;28;20032;-66
2024/03/19 09:45:59;;;;;;;3.05;1.52;;;;;;;10.41;54.80;101314.00;5048128;28;20029;-65
2024/03/19 09:48:26;;;;;;;1.65;1.35;;;;;;;10.62;53.98;101311.97;5050056;28;20033;-66
2024/03/19 09:50:52;;;;;;;4.93;1.75;;;;;;;10.81;53.55;101315.66;5048562;28;20025;-65
2024/03/19 09:53:19;;;;;;;7.05;1.80;;;;;;;10.82;53.42;101311.81;5048935;28;20055;-65
2024/03/19 09:55:46;;;;;;;3.00;1.95;;;;;;;10.81;53.19;101302.19;5051095;28;20040;-66
2024/03/19 09:58:12;;;;;;;4.35;1.90;;;;;;;10.72;53.77;101293.41;5066001;28;20028;-65
2024/03/19 10:00:40;;;;;;;1.20;1.10;;;;;;;10.89;53.72;101289.69;5049416;28;20463;-66
2024/03/19 10:03:05;;;;;;;2.83;1.92;;;;;;;11.04;53.88;101302.44;5049540;28;20592;-65
2024/03/19 10:05:31;;;;;;;3.47;1.75;;;;;;;10.99;54.23;101291.91;5050732;28;20029;-65
2024/03/19 10:07:57;;;;;;;3.03;1.80;;;;;;;11.27;54.27;101292.72;5048346;28;20036;-65
2024/03/19 10:10:24;;;;;;;4.10;1.52;;;;;;;11.36;53.23;101304.13;5050939;28;20040;-65
2024/03/19 10:12:50;;;;;;;2.92;1.52;;;;;;;11.59;53.08;101293.59;5065405;28;20149;-66
2024/03/19 10:15:24;;;;;;;4.72;1.80;;;;;;;11.77;53.27;101300.25;5047636;28;20041;-66
2024/03/19 10:17:51;;;;;;;4.63;2.15;;;;;;;11.86;53.26;101290.09;5067044;28;20036;-65
2024/03/19 10:20:17;;;;;;;4.22;1.95;;;;;;;12.07;51.26;101293.31;5066433;28;20024;-65
2024/03/19 10:22:47;;;;;;;3.03;1.38;;;;;;;12.07;51.51;101306.03;5050105;28;20025;-65
2024/03/19 10:25:14;;;;;;;3.65;1.77;;;;;;;12.22;51.78;101300.63;5046539;28;20041;-66
2024/03/19 10:27:42;;;;;;;4.53;1.92;;;;;;;12.39;51.39;101302.16;5062899;28;20029;-66
2024/03/19 10:30:11;;;;;;;2.13;1.42;;;;;;;12.46;51.23;101299.63;5048821;28;20041;-65
2024/03/19 10:32:38;;;;;;;1.80;1.33;;;;;;;12.51;51.72;101296.66;5065170;28;20033;-66
2024/03/19 10:35:11;;;;;;;2.63;1.95;;;;;;;12.50;51.77;101285.06;5047290;28;20031;-66
2024/03/19 10:37:38;;;;;;;6.47;2.00;;;;;;;12.65;51.15;101286.97;5062836;28;21527;-65
2024/03/19 10:40:05;;;;;;;4.93;1.83;;;;;;;12.62;50.71;101289.56;5047593;28;20048;-66
2024/03/19 10:42:33;;;;;;;5.07;1.85;;;;;;;12.67;50.76;101281.19;5048385;28;20033;-65
2024/03/19 10:45:02;;;;;;;2.53;1.95;;;;;;;12.62;51.78;101278.75;5051009;28;20040;-65
2024/03/19 10:47:29;;;;;;;6.00;2.03;;;;;;;12.69;52.20;101271.63;5045254;28;20036;-65
2024/03/19 10:49:54;;;;;;;1.45;1.17;;;;;;;12.65;51.26;101269.97;5046742;28;20040;-65
2024/03/19 10:52:25;;;;;;;3.97;2.15;;;;;;;12.64;52.06;101274.56;5044997;28;20021;-66
2024/03/19 10:54:53;;;;;;;2.58;1.80;;;;;;;12.73;51.30;101279.00;5048428;28;20119;-65
2024/03/19 10:57:20;;;;;;;3.25;1.92;;;;;;;12.70;51.94;101270.47;5062315;28;20041;-65
2024/03/19 10:59:48;;;;;;;3.90;1.60;;;;;;;12.60;52.36;101279.13;5063271;28;20036;-65
2024/03/19 11:02:18;;;;;;;4.28;2.35;;;;;;;12.62;51.91;101265.25;5046414;28;20505;-65
2024/03/19 11:04:53;;;;;;;4.83;2.03;;;;;;;12.70;52.14;101270.47;5065796;28;20033;-65
2024/03/19 11:07:25;;;;;;;4.22;2.17;;;;;;;12.70;52.60;101267.75;5045472;28;20286;-66
2024/03/19 11:09:52;;;;;;;4.22;2.10;;;;;;;12.89;52.31;101252.72;5045581;28;20033;-65
2024/03/19 11:12:22;;;;;;;5.25;1.98;;;;;;;13.01;52.43;101253.34;5048227;28;20523;-65
2024/03/19 11:14:56;;;;;;;4.90;2.17;;;;;;;13.09;52.41;101254.28;5066617;28;20520;-65
2024/03/19 11:17:28;;;;;;;4.63;2.17;;;;;;;13.38;52.39;101257.19;5066529;28;20616;-65
2024/03/19 11:19:55;;;;;;;4.53;1.73;;;;;;;13.55;51.75;101261.34;5050076;28;20036;-65
2024/03/19 11:22:21;;;;;;;3.75;1.80;;;;;;;13.39;50.59;101253.34;5053784;28;20025;-65
2024/03/19 11:24:50;;;;;;;7.25;2.45;;;;;;;13.56;51.03;101255.59;5046075;28;20041;-65
2024/03/19 11:27:20;;;;;;;3.58;2.15;;;;;;;13.75;50.97;101256.69;5050293;28;20032;-65